Aérodrome :
LOGIN :

S'inscrire | Disclaimer

   EN    FR    IT 

 










Légende :    VFR   VFR Marginal   IFR   IFR Intensif   IFR Très Intensif
Visi : 
Plafond : 
>= 8 km
>= 3000ft
5 à 8 km
1000 à 3000 ft
1500m à 5 km
500 à 1000 ft
800 à 1500m
200 à 500 ft
< 800m
< 200 ft
Symboles :   Orages  Brouillard  Fortes neiges  Fortes précipitations  Vent > 20 kt
SIGMETs :   Divers  Orages  Givrage  Turbulence  Onde Orograph.  Cendres Volcan.






- Altitude de l'aérodrome : 1161 ft
- Code IATA : RJL


LELO - Logroño-Agoncillo

DERNIER METAR :
  • 021930Z 26006KT 240V300 9999 FEW065 08/03 Q1016

METARs EXPIRÉS :
  • 021900Z 28007KT 9999 FEW060 09/04 Q1016
  • 021830Z 30003KT 240V020 9999 FEW055 11/04 Q1015
  • 021800Z 31007KT 250V360 9999 FEW055 12/04 Q1015
  • 021730Z 30006KT 260V350 9999 FEW030 BKN060 13/05 Q1015
  • 021700Z VRB05KT 9999 FEW030 BKN050 13/05 Q1014

TAF TAF LELO
Valide du 02 à 18h jusqu'au 03 à 03h UTC


021700Z 0218/0303 32008KT 9999 FEW040



MET'MAP, la Météo Aéronautique d'un coup d'oeil ! - Copyright ORBIFLY Décembre 2007 - Disclaimer

ORBIFLY MET'MAP TEAM :

Programmation & Développement : Alexandra Zaïnal
Sur une idée originale de : Baudouin d'Aumeries
Assistance à la programmation : Marc-Olivier Méhu
Soutien technique & logistique : Manuel Goepfert

Contact : metmap@orbifly.com




SOURCES & CREDITS :

   NOAA